Time;durP1;ratioP1;P1;durP2;ratioP2;P2;SDS_P1;SDS_P2;PMS_P1;PMS_P2;Temp;Humidity;BMP_temperature;BMP_pressure;BME280_temperature;BME280_humidity;BME280_pressure;Samples;Min_cycle;Max_cycle;Signal;HPM_P1;HPM_P2
2022/06/04 00:01:05;;;;;;;9.60;5.30;;;;;;;16.77;49.15;98780.48;434015;1268;112286;-42
2022/06/04 00:21:38;;;;;;;7.90;5.30;;;;;;;16.73;49.57;98770.52;433849;1268;99263;-45
2022/06/04 00:31:45;;;;;;;7.00;6.00;;;;;;;16.67;49.76;98751.52;433856;1267;109043;-42
2022/06/04 00:41:59;;;;;;;6.70;5.00;;;;;;;16.62;50.24;98751.13;434032;1268;99315;-44
2022/06/04 01:02:12;;;;;;;5.60;5.10;;;;;;;16.64;50.58;98719.73;433943;1268;108812;-42
2022/06/04 01:12:23;;;;;;;7.90;5.60;;;;;;;16.59;51.00;98705.09;433880;1268;99266;-42
2022/06/04 01:22:34;;;;;;;6.00;5.40;;;;;;;16.59;51.24;98699.16;434492;1260;108808;-44
2022/06/04 01:32:39;;;;;;;6.10;5.60;;;;;;;16.58;51.29;98691.80;433375;1268;98847;-44
2022/06/04 01:42:51;;;;;;;9.60;5.60;;;;;;;16.55;51.48;98679.30;433868;1267;112314;-41
2022/06/04 01:53:01;;;;;;;5.80;5.30;;;;;;;16.55;51.57;98665.90;433837;1267;108846;-41
2022/06/04 02:03:10;;;;;;;5.80;5.20;;;;;;;16.48;51.77;98659.39;433899;1267;99286;-41
2022/06/04 02:13:18;;;;;;;8.70;5.40;;;;;;;16.53;51.98;98656.07;433164;1268;108893;-43
2022/06/04 02:23:24;;;;;;;6.30;5.70;;;;;;;16.49;52.09;98647.58;433823;1267;99695;-42
2022/06/04 02:43:39;;;;;;;7.40;5.90;;;;;;;16.40;52.65;98638.10;433821;1267;108633;-42
2022/06/04 02:53:48;;;;;;;6.70;5.90;;;;;;;16.37;52.95;98635.33;433721;1267;99270;-42
2022/06/04 03:03:55;;;;;;;10.30;6.10;;;;;;;16.31;53.07;98636.38;433662;1267;108889;-42
2022/06/04 03:14:02;;;;;;;7.50;5.70;;;;;;;16.20;53.58;98636.48;433571;1267;99259;-42
2022/06/04 03:24:12;;;;;;;6.70;6.00;;;;;;;16.08;53.86;98633.05;433806;1267;110861;-42
2022/06/04 03:34:20;;;;;;;8.00;6.10;;;;;;;15.94;54.19;98629.25;433364;1268;108858;-42
2022/06/04 03:44:27;;;;;;;7.20;6.30;;;;;;;15.89;54.53;98635.60;433891;1267;99270;-45
2022/06/04 04:04:59;;;;;;;9.00;5.80;;;;;;;16.08;54.96;98626.54;433889;1268;99247;-41
2022/06/04 04:15:08;;;;;;;7.10;6.30;;;;;;;16.00;55.42;98628.45;433249;1268;113206;-43
2022/06/04 04:25:17;;;;;;;6.40;5.80;;;;;;;16.00;55.59;98623.23;433947;1268;108489;-41
2022/06/04 04:35:27;;;;;;;7.60;6.50;;;;;;;16.09;55.79;98638.55;433881;1268;97999;-41
2022/06/04 04:45:35;;;;;;;7.60;6.50;;;;;;;15.94;56.34;98644.34;433124;1268;109380;-42
2022/06/04 04:55:46;;;;;;;9.40;6.70;;;;;;;15.89;56.57;98648.02;432988;1268;98886;-40
2022/06/04 05:05:57;;;;;;;13.50;7.00;;;;;;;16.07;56.61;98667.30;432867;1269;112632;-44
2022/06/04 05:16:06;;;;;;;7.90;6.10;;;;;;;16.08;56.93;98675.14;434009;1268;108826;-43
2022/06/04 05:26:13;;;;;;;7.90;7.20;;;;;;;16.04;57.29;98692.41;433953;1268;98016;-43
2022/06/04 05:36:20;;;;;;;11.00;8.20;;;;;;;15.80;58.19;98745.73;433773;1268;108757;-42
2022/06/04 05:46:28;;;;;;;9.70;7.40;;;;;;;15.68;59.14;98777.14;432802;1268;99246;-43
2022/06/04 05:56:35;;;;;;;12.10;8.70;;;;;;;15.76;59.91;98792.00;432933;1269;112341;-42
2022/06/04 06:06:46;;;;;;;13.50;8.80;;;;;;;15.69;60.61;98798.52;433936;1268;108874;-44
2022/06/04 06:16:53;;;;;;;11.90;9.80;;;;;;;15.37;61.85;98786.67;433167;1268;99261;-41
2022/06/04 06:27:02;;;;;;;12.80;11.60;;;;;;;15.22;62.80;98778.10;432999;1268;108809;-41
2022/06/04 06:37:10;;;;;;;11.90;10.70;;;;;;;15.14;63.32;98765.70;433947;1267;98311;-42
2022/06/04 06:47:17;;;;;;;14.00;11.00;;;;;;;15.25;64.13;98759.64;433818;1267;112490;-42
2022/06/04 06:57:24;;;;;;;12.20;10.80;;;;;;;15.55;64.91;98766.80;433846;1267;108886;-42
2022/06/04 07:07:32;;;;;;;16.70;12.70;;;;;;;15.77;65.15;98761.59;433891;1267;99386;-42
2022/06/04 07:17:39;;;;;;;15.10;12.00;;;;;;;15.70;65.68;98751.19;433800;1267;108953;-42
2022/06/04 07:27:46;;;;;;;16.10;12.80;;;;;;;15.57;65.95;98773.97;433806;1267;99287;-42
2022/06/04 07:38:01;;;;;;;18.50;14.90;;;;;;;15.39;67.08;98765.48;433843;1267;112958;-41
2022/06/04 07:48:06;;;;;;;20.30;15.50;;;;;;;15.53;67.59;98758.20;433842;1267;108901;-42
2022/06/04 07:58:13;;;;;;;19.30;15.90;;;;;;;15.57;68.08;98750.67;433818;1267;99333;-42
2022/06/04 08:08:20;;;;;;;24.00;17.50;;;;;;;15.62;68.42;98747.77;433883;1267;108988;-42
2022/06/04 08:18:27;;;;;;;24.60;20.30;;;;;;;15.68;68.69;98736.94;434073;1267;98863;-44
2022/06/04 08:28:34;;;;;;;28.50;21.00;;;;;;;15.72;69.26;98738.50;433344;1268;111465;-43
2022/06/04 08:38:42;;;;;;;38.10;24.10;;;;;;;15.91;69.55;98743.27;433703;1267;108774;-45
2022/06/04 08:48:48;;;;;;;29.40;23.00;;;;;;;15.90;69.92;98726.95;433256;1268;99254;-41
2022/06/04 08:59:02;;;;;;;28.60;20.70;;;;;;;16.16;70.13;98731.66;433908;1267;108577;-41
2022/06/04 09:09:08;;;;;;;21.80;17.90;;;;;;;16.40;70.34;98719.21;433760;1267;97972;-41
2022/06/04 09:19:14;;;;;;;26.00;17.90;;;;;;;16.53;70.78;98707.38;433458;1267;112461;-42
2022/06/04 09:29:30;;;;;;;25.50;17.60;;;;;;;16.64;71.13;98713.91;433779;1268;318602;-41
2022/06/04 09:39:40;;;;;;;19.60;16.50;;;;;;;16.81;71.59;98728.83;434043;1267;97953;-43
2022/06/04 09:49:53;;;;;;;18.50;13.60;;;;;;;17.06;71.96;98747.61;434101;1266;108855;-43
2022/06/04 10:00:02;;;;;;;24.50;18.10;;;;;;;17.43;71.91;98754.30;434292;1267;99246;-42
2022/06/04 10:20:29;;;;;;;27.80;21.90;;;;;;;17.27;71.86;98785.01;433881;1268;108341;-43
2022/06/04 10:30:34;;;;;;;23.00;20.20;;;;;;;17.14;72.18;98785.61;434147;1267;99331;-42
2022/06/04 10:40:47;;;;;;;17.60;15.70;;;;;;;17.17;72.69;98779.61;433685;1267;108965;-44
2022/06/04 10:51:31;;;;;;;18.20;15.40;;;;;;;17.38;72.88;98783.98;433907;1266;98580;-45
2022/06/04 11:11:51;;;;;;;11.80;10.70;;;;;;;17.85;73.06;98790.45;433988;1267;108458;-42
2022/06/04 11:22:02;;;;;;;11.80;10.60;;;;;;;18.17;73.08;98793.05;434102;1267;98857;-42
2022/06/04 11:32:08;;;;;;;13.40;12.10;;;;;;;18.59;73.42;98790.53;434193;1267;108747;-42
2022/06/04 11:42:13;;;;;;;10.30;9.40;;;;;;;19.25;73.27;98787.37;434075;1267;98872;-41
2022/06/04 11:52:20;;;;;;;11.40;9.60;;;;;;;19.48;72.92;98793.55;434035;1267;111401;-43
2022/06/04 12:02:28;;;;;;;11.30;9.70;;;;;;;19.48;73.10;98798.58;434096;1267;108809;-42
2022/06/04 12:12:37;;;;;;;;;;;;;;;19.42;73.08;98796.01;434296;1267;98784;-41
2022/06/04 12:43:30;;;;;;;14.60;13.20;;;;;;;19.59;72.69;98811.36;434301;1267;111005;-41
2022/06/04 12:53:47;;;;;;;14.50;13.10;;;;;;;19.44;72.63;98815.56;434198;1267;108753;-43
2022/06/04 13:14:14;;;;;;;15.00;13.50;;;;;;;19.76;72.40;98817.03;434269;1266;107665;-41
2022/06/04 13:24:25;;;;;;;15.70;14.10;;;;;;;20.17;71.91;98814.27;434078;1267;99245;-45
2022/06/04 13:34:34;;;;;;;13.80;12.50;;;;;;;20.43;71.31;98815.10;434259;1267;111464;-44
2022/06/04 13:44:44;;;;;;;11.20;10.00;;;;;;;20.58;70.72;98810.73;434140;1265;108672;-42
2022/06/04 13:54:50;;;;;;;11.00;10.00;;;;;;;20.46;70.75;98812.67;434237;1267;99932;-41
2022/06/04 14:15:26;;;;;;;8.30;7.50;;;;;;;20.55;69.11;98807.92;434120;1267;99344;-43
2022/06/04 14:25:34;;;;;;;9.40;8.60;;;;;;;20.57;68.77;98810.05;434150;1267;111822;-45
2022/06/04 14:35:41;;;;;;;8.60;7.90;;;;;;;20.72;68.26;98832.17;433998;1267;108847;-41
2022/06/04 14:45:52;;;;;;;9.00;8.10;;;;;;;21.11;67.46;98830.30;434133;1267;98023;-42
2022/06/04 14:56:06;;;;;;;8.40;7.70;;;;;;;21.03;66.28;98832.54;434096;1267;108824;-41
2022/06/04 15:06:17;;;;;;;8.60;7.70;;;;;;;21.26;66.01;98827.55;433970;1267;98867;-42
2022/06/04 15:16:24;;;;;;;9.30;8.40;;;;;;;21.41;65.38;98819.88;434044;1267;113307;-45
2022/06/04 15:26:30;;;;;;;10.30;9.40;;;;;;;21.12;65.02;98829.21;434188;1267;108564;-40
2022/06/04 15:36:36;;;;;;;10.30;9.30;;;;;;;21.15;64.65;98826.38;434234;1267;97940;-41
2022/06/04 15:46:43;;;;;;;10.00;8.50;;;;;;;21.10;64.77;98799.95;433997;1267;108842;-40
2022/06/04 15:56:52;;;;;;;9.10;8.10;;;;;;;21.07;64.90;98805.91;434077;1267;98824;-41
2022/06/04 16:07:17;;;;;;;10.60;9.30;;;;;;;20.84;64.96;98798.36;434072;1267;112516;-41
2022/06/04 16:17:24;;;;;;;11.30;10.20;;;;;;;20.81;65.01;98794.86;434158;1267;108634;-45
2022/06/04 16:37:42;;;;;;;12.60;11.20;;;;;;;20.81;65.38;98821.80;434228;1267;108868;-41
2022/06/04 16:47:52;;;;;;;12.90;11.50;;;;;;;20.66;65.74;98808.59;433992;1266;99922;-42
2022/06/04 16:58:02;;;;;;;13.70;12.40;;;;;;;20.47;65.78;98802.19;434362;1265;112401;-42
2022/06/04 17:08:11;;;;;;;12.10;9.80;;;;;;;20.40;66.06;98824.03;433932;1267;108228;-41
2022/06/04 17:28:46;;;;;;;12.70;10.70;;;;;;;20.26;66.81;98831.20;434193;1267;108837;-44
2022/06/04 17:38:58;;;;;;;14.40;11.90;;;;;;;20.13;67.26;98832.35;433488;1267;99391;-41
2022/06/04 17:49:05;;;;;;;11.90;10.20;;;;;;;20.00;67.49;98837.44;434154;1267;111179;-40
2022/06/04 17:59:12;;;;;;;14.40;11.00;;;;;;;19.90;67.86;98834.18;434243;1267;108441;-41
2022/06/04 18:09:19;;;;;;;14.70;13.10;;;;;;;19.84;68.30;98839.63;434317;1268;99365;-41
2022/06/04 18:19:27;;;;;;;14.80;13.40;;;;;;;19.77;68.64;98860.07;434204;1268;108711;-41
2022/06/04 18:29:41;;;;;;;16.20;13.20;;;;;;;19.45;68.56;98851.11;434030;1266;99273;-42
2022/06/04 18:39:49;;;;;;;14.90;13.30;;;;;;;19.24;68.87;98864.64;434055;1267;111605;-43
2022/06/04 19:00:21;;;;;;;21.30;17.10;;;;;;;19.12;69.74;98879.52;433938;1267;99878;-40
2022/06/04 19:31:19;;;;;;;26.40;17.40;;;;;;;18.49;70.84;98903.06;434142;1265;112438;-41
2022/06/04 19:41:27;;;;;;;28.90;19.90;;;;;;;18.38;71.21;98918.03;434119;1268;108850;-40
2022/06/04 19:51:35;;;;;;;28.30;22.40;;;;;;;18.40;71.95;98929.53;433983;1266;98818;-44
2022/06/04 20:01:41;;;;;;;32.50;26.40;;;;;;;18.42;71.91;98936.59;434211;1268;108681;-41
2022/06/04 20:11:48;;;;;;;32.90;26.30;;;;;;;18.38;71.95;98930.77;434093;1268;100014;-41
2022/06/04 20:21:55;;;;;;;33.70;24.70;;;;;;;18.28;72.13;98919.67;434162;1266;112556;-43
2022/06/04 20:32:03;;;;;;;44.60;32.80;;;;;;;18.14;72.60;98926.56;434094;1267;110181;-41
2022/06/04 20:42:11;;;;;;;35.70;29.70;;;;;;;18.14;72.86;98931.33;434066;1267;98041;-40
2022/06/04 20:52:19;;;;;;;37.30;30.50;;;;;;;18.05;73.33;98934.35;433962;1267;107586;-41
2022/06/04 21:02:25;;;;;;;36.40;28.00;;;;;;;18.11;73.45;98937.44;434143;1267;98824;-40
2022/06/04 21:12:32;;;;;;;35.10;29.50;;;;;;;18.08;73.75;98945.42;434019;1267;112444;-41
2022/06/04 21:22:40;;;;;;;32.60;27.50;;;;;;;17.87;73.71;98952.35;433753;1267;108613;-44
2022/06/04 21:32:49;;;;;;;27.30;23.40;;;;;;;17.68;73.85;98956.78;433524;1267;333369;-41
2022/06/04 21:42:57;;;;;;;35.30;25.40;;;;;;;17.59;74.05;98952.77;433914;1267;108636;-40
2022/06/04 21:53:07;;;;;;;24.30;21.30;;;;;;;17.62;74.18;98950.83;433618;1267;99251;-42
2022/06/04 22:03:14;;;;;;;22.00;19.80;;;;;;;17.54;73.86;98951.73;433845;1267;111205;-41
2022/06/04 22:13:28;;;;;;;19.90;17.90;;;;;;;17.40;73.74;98954.02;434265;1268;108806;-39
2022/06/04 22:23:36;;;;;;;22.20;16.90;;;;;;;17.23;73.67;98959.61;434004;1268;99244;-41
2022/06/04 22:33:44;;;;;;;20.70;15.50;;;;;;;17.14;73.31;98961.80;434035;1267;108735;-41
2022/06/04 22:43:51;;;;;;;22.00;15.70;;;;;;;17.09;73.38;98957.03;434025;1267;98876;-45
2022/06/04 22:53:58;;;;;;;22.60;16.60;;;;;;;17.06;73.32;98951.47;433992;1268;112181;-42
2022/06/04 23:04:07;;;;;;;20.70;17.00;;;;;;;16.80;73.30;98952.27;433783;1267;109107;-42
2022/06/04 23:24:37;;;;;;;22.20;17.00;;;;;;;16.05;73.40;98943.14;433884;1267;108836;-42
2022/06/04 23:34:44;;;;;;;24.20;16.40;;;;;;;15.95;73.76;98940.52;433690;1267;99273;-41
2022/06/04 23:44:51;;;;;;;22.30;16.60;;;;;;;15.76;73.95;98947.27;434065;1268;112377;-41
